createdAt,value
2024-04-12T00:01:03.279Z,102181.81
2024-04-12T00:03:38.109Z,102188.91
2024-04-12T00:06:08.882Z,102186.31
2024-04-12T00:08:50.941Z,102182.31
2024-04-12T00:11:20.103Z,102192.16
2024-04-12T00:13:53.855Z,102184.75
2024-04-12T00:16:26.303Z,102183.09
2024-04-12T00:19:08.592Z,102179.19
2024-04-12T00:21:39.407Z,102179.00
2024-04-12T00:24:13.798Z,102181.56
2024-04-12T00:26:44.533Z,102186.00
2024-04-12T00:29:27.828Z,102184.50
2024-04-12T00:31:55.893Z,102181.03
2024-04-12T00:34:28.068Z,102187.16
2024-04-12T00:37:07.665Z,102181.22
2024-04-12T00:39:41.543Z,102180.53
2024-04-12T00:42:12.771Z,102176.03
2024-04-12T00:44:43.755Z,102182.13
2024-04-12T00:47:17.916Z,102177.00
2024-04-12T00:49:53.188Z,102181.69
2024-04-12T00:52:25.112Z,102186.84
2024-04-12T00:55:05.143Z,102181.75
2024-04-12T00:57:38.710Z,102184.84
2024-04-12T01:00:13.635Z,102182.72
2024-04-12T01:02:45.492Z,102181.78
2024-04-12T01:05:19.565Z,102179.84
2024-04-12T01:07:52.199Z,102184.84
2024-04-12T01:10:32.266Z,102179.50
2024-04-12T01:13:04.276Z,102170.84
2024-04-12T01:15:39.443Z,102174.41
2024-04-12T01:18:13.700Z,102174.25
2024-04-12T01:20:47.064Z,102173.44
2024-04-12T01:23:18.456Z,102172.75
2024-04-12T01:25:53.030Z,102171.16
2024-04-12T01:28:21.072Z,102167.59
2024-04-12T01:31:02.044Z,102162.19
2024-04-12T01:33:33.260Z,102170.03
2024-04-12T01:36:06.848Z,102166.63
2024-04-12T01:38:38.390Z,102170.09
2024-04-12T01:41:12.493Z,102160.78
2024-04-12T01:43:39.974Z,102152.72
2024-04-12T01:46:11.101Z,102153.56
2024-04-12T01:48:38.648Z,102159.03
2024-04-12T01:51:15.187Z,102151.22
2024-04-12T01:53:43.008Z,102159.16
2024-04-12T01:56:16.014Z,102157.59
2024-04-12T01:58:44.463Z,102152.44
2024-04-12T02:01:18.019Z,102165.75
2024-04-12T02:03:46.097Z,102161.38
2024-04-12T02:06:18.022Z,102163.25
2024-04-12T02:08:50.269Z,102162.25
2024-04-12T02:11:27.168Z,102162.28
2024-04-12T02:13:56.255Z,102164.13
2024-04-12T02:16:28.388Z,102167.75
2024-04-12T02:18:57.604Z,102164.34
2024-04-12T02:21:33.053Z,102168.72
2024-04-12T02:24:02.570Z,102170.59
2024-04-12T02:26:38.733Z,102181.09
2024-04-12T02:29:06.317Z,102183.78
2024-04-12T02:31:50.523Z,102175.03
2024-04-12T02:34:20.245Z,102180.63
2024-04-12T02:36:51.072Z,102178.03
2024-04-12T02:39:25.029Z,102180.53
2024-04-12T02:41:58.122Z,102182.41
2024-04-12T02:44:26.855Z,102180.81
2024-04-12T02:46:59.967Z,102177.28
2024-04-12T02:49:26.976Z,102174.88
2024-04-12T02:52:01.160Z,102173.75
2024-04-12T02:54:29.887Z,102172.13
2024-04-12T02:57:06.916Z,102166.91
2024-04-12T02:59:36.287Z,102185.56
2024-04-12T03:02:06.855Z,102177.72
2024-04-12T03:04:35.079Z,102170.56
2024-04-12T03:07:10.827Z,102170.00
2024-04-12T03:09:42.018Z,102165.34
2024-04-12T03:12:14.905Z,102162.56
2024-04-12T03:14:43.472Z,102174.78
2024-04-12T03:17:15.842Z,102165.97
2024-04-12T03:19:45.515Z,102165.25
2024-04-12T03:22:22.757Z,102163.53
2024-04-12T03:24:51.810Z,102169.69
2024-04-12T03:27:24.806Z,102172.44
2024-04-12T03:29:53.662Z,102164.69
2024-04-12T03:32:30.768Z,102161.91
2024-04-12T03:35:00.738Z,102161.00
2024-04-12T03:37:48.691Z,102164.56
2024-04-12T03:40:18.527Z,102162.16
2024-04-12T03:42:51.200Z,102155.19
2024-04-12T03:45:18.790Z,102161.97
2024-04-12T03:47:51.861Z,102168.22
2024-04-12T03:50:19.539Z,102172.72
2024-04-12T03:52:49.590Z,102168.41
2024-04-12T03:55:18.043Z,102164.47
2024-04-12T03:57:49.691Z,102164.56
2024-04-12T04:00:26.422Z,102153.66
2024-04-12T04:03:00.494Z,102164.31
2024-04-12T04:05:31.418Z,102159.41
2024-04-12T04:08:02.135Z,102151.34
2024-04-12T04:10:32.412Z,102146.88
2024-04-12T04:13:05.330Z,102151.44
2024-04-12T04:15:52.013Z,102145.53
2024-04-12T04:18:21.052Z,102154.22
2024-04-12T04:20:51.727Z,102165.84
2024-04-12T04:23:22.086Z,102163.25
2024-04-12T04:25:56.814Z,102165.03
2024-04-12T04:28:32.334Z,102171.41
2024-04-12T04:31:09.700Z,102168.72
2024-04-12T04:33:42.293Z,102156.38
2024-04-12T04:36:13.353Z,102161.88
2024-04-12T04:38:41.812Z,102155.06
2024-04-12T04:41:20.176Z,102160.22
2024-04-12T04:43:47.787Z,102147.13
2024-04-12T04:46:29.643Z,102150.56
2024-04-12T04:49:01.319Z,102158.47
2024-04-12T04:51:31.850Z,102162.25
2024-04-12T04:54:01.995Z,102163.72
2024-04-12T04:56:34.563Z,102151.47
2024-04-12T04:59:07.767Z,102162.94
2024-04-12T05:01:39.189Z,102177.75
2024-04-12T05:04:19.017Z,102166.50
2024-04-12T05:06:51.586Z,102169.81
2024-04-12T05:09:24.264Z,102170.72
2024-04-12T05:11:55.776Z,102179.34
2024-04-12T05:14:48.099Z,102180.16
2024-04-12T05:17:20.615Z,102172.28
2024-04-12T05:19:53.495Z,102177.63
2024-04-12T05:22:21.530Z,102191.19
2024-04-12T05:24:53.929Z,102184.13
2024-04-12T05:27:21.122Z,102196.16
2024-04-12T05:29:52.241Z,102200.44
2024-04-12T05:32:24.688Z,102195.09
2024-04-12T05:34:55.226Z,102202.03
2024-04-12T05:37:23.595Z,102195.63
2024-04-12T05:39:59.245Z,102194.47
2024-04-12T05:42:27.333Z,102200.94
2024-04-12T05:45:00.089Z,102195.59
2024-04-12T05:47:30.153Z,102198.72
2024-04-12T05:50:03.071Z,102207.06
2024-04-12T05:52:33.772Z,102203.72
2024-04-12T05:55:17.518Z,102203.63
2024-04-12T05:57:45.124Z,102196.00
2024-04-12T06:00:16.274Z,102196.66
2024-04-12T06:02:48.985Z,102203.38
2024-04-12T06:05:24.101Z,102198.31
2024-04-12T06:07:53.783Z,102201.94
2024-04-12T06:10:25.390Z,102210.94
2024-04-12T06:12:56.401Z,102205.09
2024-04-12T06:15:29.525Z,102205.09
2024-04-12T06:18:01.069Z,102204.78
2024-04-12T06:20:35.578Z,102205.66
2024-04-12T06:23:08.211Z,102210.63
2024-04-12T06:26:05.107Z,102208.38
2024-04-12T06:28:34.021Z,102204.06
2024-04-12T06:31:06.994Z,102199.31
2024-04-12T06:33:41.156Z,102195.44
2024-04-12T06:36:14.706Z,102189.28
2024-04-12T06:38:45.301Z,102201.63
2024-04-12T06:41:18.809Z,102198.75
2024-04-12T06:43:50.394Z,102194.47
2024-04-12T06:46:22.282Z,102190.56
2024-04-12T06:48:53.071Z,102197.72
2024-04-12T06:51:28.949Z,102203.78
2024-04-12T06:53:58.113Z,102206.66
2024-04-12T06:56:45.072Z,102202.94
2024-04-12T06:59:14.826Z,102202.25
2024-04-12T07:01:50.351Z,102205.84
2024-04-12T07:07:25.389Z,102211.19
2024-04-12T07:10:01.452Z,102215.94
2024-04-12T07:12:33.449Z,102209.19
2024-04-12T07:15:02.000Z,102211.22
2024-04-12T07:17:36.164Z,102207.16
2024-04-12T07:20:28.228Z,102207.56
2024-04-12T07:23:01.679Z,102199.34
2024-04-12T07:26:17.801Z,102193.16
2024-04-12T07:28:48.706Z,102201.16
2024-04-12T07:31:50.291Z,102198.84
2024-04-12T07:34:20.389Z,102195.97
2024-04-12T07:37:22.146Z,102192.47
2024-04-12T07:40:16.713Z,102193.28
2024-04-12T07:42:53.645Z,102194.03
2024-04-12T07:45:36.372Z,102193.66
2024-04-12T07:48:31.690Z,102192.41
2024-04-12T07:51:06.529Z,102183.16
2024-04-12T07:53:40.428Z,102183.19
2024-04-12T07:56:22.302Z,102184.06
2024-04-12T07:59:17.607Z,102179.13
2024-04-12T08:01:52.242Z,102181.31
2024-04-12T08:04:35.145Z,102184.13
2024-04-12T08:07:33.413Z,102178.72
2024-04-12T08:10:32.943Z,102169.94
2024-04-12T08:13:13.083Z,102170.09
2024-04-12T08:15:43.115Z,102174.00
2024-04-12T08:18:25.091Z,102173.38
2024-04-12T08:21:11.175Z,102170.31
2024-04-12T08:23:46.551Z,102172.88
2024-04-12T08:26:47.002Z,102179.63
2024-04-12T08:29:25.632Z,102177.78
2024-04-12T08:32:23.822Z,102190.28
2024-04-12T08:34:57.038Z,102180.78
2024-04-12T08:37:35.814Z,102193.47
2024-04-12T08:40:12.789Z,102192.75
2024-04-12T08:43:11.725Z,102200.19
2024-04-12T08:45:45.628Z,102195.59
2024-04-12T08:48:32.355Z,102200.56
2024-04-12T08:51:23.411Z,102189.69
2024-04-12T08:54:41.341Z,102195.00
2024-04-12T08:57:38.229Z,102189.28
2024-04-12T09:03:27.367Z,102194.97
2024-04-12T09:06:18.793Z,102186.16
2024-04-12T09:08:58.912Z,102184.47
2024-04-12T09:11:47.148Z,102181.16
2024-04-12T09:14:22.041Z,102169.50
2024-04-12T09:17:25.518Z,102173.16
2024-04-12T09:19:54.855Z,102170.13
2024-04-12T09:22:33.626Z,102170.09
2024-04-12T09:25:21.713Z,102156.16
2024-04-12T09:27:53.159Z,102165.13
2024-04-12T09:30:39.278Z,102148.59
2024-04-12T09:33:22.095Z,102145.25
2024-04-12T09:35:58.779Z,102158.09
2024-04-12T09:38:30.102Z,102170.94
2024-04-12T09:41:28.742Z,102159.28
2024-04-12T09:47:12.091Z,102163.25
2024-04-12T09:50:02.894Z,102153.03
2024-04-12T09:52:52.354Z,102172.09
2024-04-12T09:55:56.521Z,102165.75
2024-04-12T09:59:21.481Z,102166.22
2024-04-12T10:02:15.893Z,102159.31
2024-04-12T10:05:42.182Z,102160.09
2024-04-12T10:08:44.163Z,102160.56
2024-04-12T10:14:43.489Z,102149.22
2024-04-12T10:17:54.070Z,102144.56
2024-04-12T10:23:53.729Z,102150.47
2024-04-12T10:26:52.745Z,102142.72
2024-04-12T10:29:43.133Z,102138.44
2024-04-12T10:32:31.743Z,102142.75
2024-04-12T10:35:27.485Z,102136.53
2024-04-12T10:38:36.899Z,102135.78
2024-04-12T10:41:42.324Z,102126.34
2024-04-12T10:44:23.806Z,102137.56
2024-04-12T10:46:54.052Z,102127.63
2024-04-12T10:50:39.677Z,102139.31
2024-04-12T10:53:22.243Z,102135.44
2024-04-12T10:56:01.480Z,102134.97
2024-04-12T10:58:53.211Z,102131.50
2024-04-12T11:01:27.735Z,102126.09
2024-04-12T11:05:08.086Z,102121.66
2024-04-12T11:07:54.624Z,102119.19
2024-04-12T11:11:19.222Z,102131.50
2024-04-12T11:14:33.182Z,102128.84
2024-04-12T11:17:24.577Z,102124.03
2024-04-12T11:23:32.186Z,102134.22
2024-04-12T11:26:25.943Z,102146.22
2024-04-12T11:29:23.014Z,102134.22
2024-04-12T11:32:14.817Z,102129.75
2024-04-12T11:35:05.472Z,102128.88
2024-04-12T11:37:44.362Z,102138.59
2024-04-12T11:43:34.376Z,102128.00
2024-04-12T11:46:09.754Z,102127.00
2024-04-12T11:49:04.551Z,102125.78
2024-04-12T11:51:35.115Z,102126.16
2024-04-12T11:54:18.117Z,102120.13
2024-04-12T11:56:46.283Z,102116.84
2024-04-12T11:59:29.984Z,102123.06
2024-04-12T12:02:06.856Z,102120.44
2024-04-12T12:04:40.927Z,102120.09
2024-04-12T12:07:18.291Z,102123.25
2024-04-12T12:09:54.082Z,102113.16
2024-04-12T12:12:28.625Z,102104.84
2024-04-12T12:15:17.228Z,102113.94
2024-04-12T12:17:52.351Z,102117.13
2024-04-12T12:20:24.589Z,102107.22
2024-04-12T12:23:00.046Z,102093.94
2024-04-12T12:25:57.590Z,102097.50
2024-04-12T12:28:33.908Z,102104.97
2024-04-12T12:31:15.256Z,102086.38
2024-04-12T12:33:48.256Z,102090.09
2024-04-12T12:36:25.125Z,102079.00
2024-04-12T12:39:03.380Z,102076.72
2024-04-12T12:42:21.686Z,102085.97
2024-04-12T12:44:56.572Z,102074.44
2024-04-12T12:48:04.023Z,102073.22
2024-04-12T12:50:42.403Z,102077.41
2024-04-12T12:53:19.466Z,102078.78
2024-04-12T12:56:09.547Z,102068.34
2024-04-12T12:58:53.079Z,102074.75
2024-04-12T13:01:38.038Z,102071.13
2024-04-12T13:04:09.411Z,102065.28
2024-04-12T13:06:45.949Z,102066.38
2024-04-12T13:09:26.555Z,102060.28
2024-04-12T13:12:15.323Z,102055.00
2024-04-12T13:14:50.254Z,102048.19
2024-04-12T13:18:09.848Z,102052.69
2024-04-12T13:20:53.786Z,102051.19
2024-04-12T13:23:31.887Z,102049.06
2024-04-12T13:26:25.325Z,102045.13
2024-04-12T13:29:03.948Z,102032.13
2024-04-12T13:31:40.637Z,102035.03
2024-04-12T13:37:26.432Z,102024.09
2024-04-12T13:40:19.949Z,102017.03
2024-04-12T13:43:01.089Z,102015.47
2024-04-12T13:46:03.510Z,102012.09
2024-04-12T13:49:02.294Z,102003.38
2024-04-12T13:51:52.018Z,102002.63
2024-04-12T13:54:35.715Z,102004.69
2024-04-12T13:57:24.542Z,102000.38
2024-04-12T13:59:55.864Z,101994.72
2024-04-12T14:02:34.718Z,101995.47
2024-04-12T14:05:19.046Z,101991.97
2024-04-12T14:07:51.214Z,101995.47
2024-04-12T14:10:33.437Z,101988.69
2024-04-12T14:13:22.808Z,101979.28
2024-04-12T14:16:05.093Z,101981.75
2024-04-12T14:18:36.204Z,101976.22
2024-04-12T14:21:10.346Z,101982.41
2024-04-12T14:24:00.227Z,101980.31
2024-04-12T14:26:38.394Z,101980.41
2024-04-12T14:29:17.918Z,101976.53
2024-04-12T14:31:55.950Z,101962.25
2024-04-12T14:34:30.515Z,101961.25
2024-04-12T14:37:06.665Z,101969.84
2024-04-12T14:39:36.847Z,101963.94
2024-04-12T14:42:09.307Z,101969.25
2024-04-12T14:44:51.870Z,101963.69
2024-04-12T14:47:27.147Z,101956.69
2024-04-12T14:49:57.410Z,101958.50
2024-04-12T14:52:31.329Z,101953.53
2024-04-12T14:55:14.058Z,101960.16
2024-04-12T14:57:52.386Z,101957.06
2024-04-12T15:00:37.495Z,101953.44
2024-04-12T15:03:24.192Z,101947.25
2024-04-12T15:06:14.791Z,101935.22
2024-04-12T15:09:17.539Z,101938.19
2024-04-12T15:12:07.135Z,101933.44
2024-04-12T15:15:04.579Z,101925.78
2024-04-12T15:17:51.876Z,101929.09
2024-04-12T15:20:42.714Z,101921.97
2024-04-12T15:23:32.716Z,101923.72
2024-04-12T15:26:28.306Z,101912.28
2024-04-12T15:29:15.491Z,101911.16
2024-04-12T15:32:07.805Z,101910.97
2024-04-12T15:34:53.939Z,101911.22
2024-04-12T15:37:48.426Z,101913.72
2024-04-12T15:40:45.674Z,101914.19
2024-04-12T15:43:42.026Z,101913.75
2024-04-12T15:46:30.594Z,101918.84
2024-04-12T15:49:22.829Z,101916.63
2024-04-12T15:52:11.532Z,101910.28
2024-04-12T15:54:53.042Z,101912.31
2024-04-12T15:57:49.114Z,101912.28
2024-04-12T16:00:41.317Z,101909.91
2024-04-12T16:03:37.026Z,101909.50
2024-04-12T16:06:31.993Z,101904.84
2024-04-12T16:09:23.154Z,101902.22
2024-04-12T16:15:13.750Z,101903.50
2024-04-12T16:17:45.728Z,101907.69
2024-04-12T16:20:16.736Z,101899.19
2024-04-12T16:22:58.967Z,101902.03
2024-04-12T16:25:34.613Z,101895.03
2024-04-12T16:28:08.899Z,101890.25
2024-04-12T16:30:48.679Z,101897.78
2024-04-12T16:33:31.491Z,101891.75
2024-04-12T16:36:05.286Z,101886.72
2024-04-12T16:38:43.085Z,101881.94
2024-04-12T16:41:22.001Z,101875.53
2024-04-12T16:43:56.458Z,101868.22
2024-04-12T16:46:35.422Z,101868.28
2024-04-12T16:49:07.111Z,101867.91
2024-04-12T16:51:49.622Z,101879.34
2024-04-12T16:54:30.796Z,101869.06
2024-04-12T16:57:11.571Z,101882.44
2024-04-12T16:59:45.126Z,101875.97
2024-04-12T17:02:17.963Z,101875.38
2024-04-12T17:04:46.256Z,101876.66
2024-04-12T17:07:29.719Z,101873.44
2024-04-12T17:10:20.548Z,101864.78
2024-04-12T17:12:53.645Z,101860.25
2024-04-12T17:15:24.564Z,101866.50
2024-04-12T17:17:58.120Z,101863.06
2024-04-12T17:20:25.594Z,101863.66
2024-04-12T17:22:59.059Z,101850.34
2024-04-12T17:25:38.719Z,101848.88
2024-04-12T17:28:16.670Z,101845.53
2024-04-12T17:30:52.997Z,101845.44
2024-04-12T17:33:31.355Z,101840.66
2024-04-12T17:36:11.857Z,101852.38
2024-04-12T17:38:46.581Z,101847.72
2024-04-12T17:41:19.757Z,101851.50
2024-04-12T17:43:54.777Z,101853.09
2024-04-12T17:46:26.929Z,101848.69
2024-04-12T17:49:10.572Z,101847.22
2024-04-12T17:51:38.318Z,101851.72
2024-04-12T17:54:13.117Z,101842.28
2024-04-12T17:56:44.457Z,101842.00
2024-04-12T17:59:15.455Z,101839.03
2024-04-12T18:01:57.358Z,101828.19
2024-04-12T18:04:30.747Z,101827.91
2024-04-12T18:06:58.251Z,101831.59
2024-04-12T18:09:31.584Z,101837.03
2024-04-12T18:12:04.680Z,101850.69
2024-04-12T18:14:35.042Z,101843.94
2024-04-12T18:17:06.485Z,101849.78
2024-04-12T18:19:34.846Z,101855.13
2024-04-12T18:22:05.504Z,101848.56
2024-04-12T18:24:33.022Z,101855.88
2024-04-12T18:27:06.640Z,101858.63
2024-04-12T18:29:37.164Z,101851.84
2024-04-12T18:32:10.177Z,101854.09
2024-04-12T18:34:39.668Z,101855.44
2024-04-12T18:37:38.866Z,101854.53
2024-04-12T18:40:26.611Z,101860.38
2024-04-12T18:43:18.026Z,101859.66
2024-04-12T18:45:55.314Z,101856.97
2024-04-12T18:48:28.174Z,101865.25
2024-04-12T18:50:59.549Z,101864.47
2024-04-12T18:53:31.199Z,101862.56
2024-04-12T18:55:59.320Z,101864.34
2024-04-12T18:58:35.410Z,101864.41
2024-04-12T19:01:05.358Z,101870.84
2024-04-12T19:03:36.113Z,101869.13
2024-04-12T19:06:07.120Z,101868.03
2024-04-12T19:08:43.005Z,101861.47
2024-04-12T19:11:13.749Z,101874.78
2024-04-12T19:13:45.402Z,101867.91
2024-04-12T19:16:15.488Z,101867.59
2024-04-12T19:18:47.856Z,101867.41
2024-04-12T19:21:19.375Z,101863.84
2024-04-12T19:24:03.838Z,101864.66
2024-04-12T19:26:43.860Z,101867.97
2024-04-12T19:29:14.484Z,101860.56
2024-04-12T19:31:47.558Z,101860.84
2024-04-12T19:34:17.237Z,101866.09
2024-04-12T19:36:51.767Z,101870.50
2024-04-12T19:39:20.246Z,101858.19
2024-04-12T19:41:50.799Z,101865.47
2024-04-12T19:44:21.258Z,101865.56
2024-04-12T19:46:55.910Z,101865.38
2024-04-12T19:49:25.271Z,101865.50
2024-04-12T19:51:55.588Z,101859.94
2024-04-12T19:54:23.898Z,101866.63
2024-04-12T19:56:54.263Z,101872.25
2024-04-12T19:59:24.506Z,101854.41
2024-04-12T20:01:56.827Z,101853.72
2024-04-12T20:04:25.400Z,101860.13
2024-04-12T20:06:55.983Z,101860.69
2024-04-12T20:09:24.239Z,101864.81
2024-04-12T20:12:00.532Z,101852.94
2024-04-12T20:14:32.954Z,101854.53
2024-04-12T20:17:06.135Z,101846.97
2024-04-12T20:19:35.771Z,101854.63
2024-04-12T20:22:06.800Z,101854.41
2024-04-12T20:24:35.438Z,101861.66
2024-04-12T20:27:05.939Z,101851.44
2024-04-12T20:29:37.398Z,101841.78
2024-04-12T20:32:24.672Z,101845.13
2024-04-12T20:35:20.177Z,101847.97
2024-04-12T20:37:50.915Z,101858.84
2024-04-12T20:40:18.550Z,101851.66
2024-04-12T20:42:50.851Z,101846.50
2024-04-12T20:45:22.952Z,101853.94
2024-04-12T20:47:52.814Z,101851.59
2024-04-12T20:50:20.120Z,101856.19
2024-04-12T20:52:50.455Z,101843.59
2024-04-12T20:55:17.868Z,101839.41
2024-04-12T20:57:48.707Z,101849.03
2024-04-12T21:00:18.704Z,101847.41
2024-04-12T21:02:53.425Z,101847.50
2024-04-12T21:05:21.198Z,101850.59
2024-04-12T21:07:53.147Z,101843.63
2024-04-12T21:10:25.000Z,101836.59
2024-04-12T21:12:59.537Z,101844.06
2024-04-12T21:15:27.057Z,101841.78
2024-04-12T21:18:03.207Z,101837.53
2024-04-12T21:20:31.173Z,101844.19
2024-04-12T21:23:03.760Z,101854.13
2024-04-12T21:25:33.704Z,101840.38
2024-04-12T21:28:07.048Z,101843.72
2024-04-12T21:30:37.052Z,101849.34
2024-04-12T21:33:15.844Z,101854.03
2024-04-12T21:35:54.060Z,101847.94
2024-04-12T21:38:25.109Z,101848.19
2024-04-12T21:41:06.143Z,101848.44
2024-04-12T21:43:37.141Z,101851.97
2024-04-12T21:46:06.210Z,101848.72
2024-04-12T21:48:41.223Z,101857.75
2024-04-12T21:51:11.605Z,101857.13
2024-04-12T21:53:44.569Z,101852.47
2024-04-12T21:56:15.622Z,101852.84
2024-04-12T21:58:46.991Z,101857.91
2024-04-12T22:01:17.214Z,101852.38
2024-04-12T22:03:54.191Z,101849.31
2024-04-12T22:06:21.919Z,101851.34
2024-04-12T22:08:55.109Z,101853.69
2024-04-12T22:11:25.204Z,101857.31
2024-04-12T22:13:55.808Z,101866.47
2024-04-12T22:16:23.581Z,101854.19
2024-04-12T22:18:58.450Z,101848.56
2024-04-12T22:21:27.414Z,101843.91
2024-04-12T22:23:59.918Z,101848.69
2024-04-12T22:26:34.574Z,101847.13
2024-04-12T22:29:05.154Z,101845.72
2024-04-12T22:31:32.730Z,101850.38
2024-04-12T22:34:05.698Z,101851.91
2024-04-12T22:36:32.951Z,101840.66
2024-04-12T22:39:04.650Z,101839.88
2024-04-12T22:41:32.226Z,101843.31
2024-04-12T22:44:03.284Z,101838.25
2024-04-12T22:46:30.877Z,101834.78
2024-04-12T22:49:07.404Z,101835.28
2024-04-12T22:51:36.223Z,101833.06
2024-04-12T22:54:06.608Z,101831.03
2024-04-12T22:56:37.073Z,101831.19
2024-04-12T22:59:07.292Z,101839.19
2024-04-12T23:01:39.682Z,101832.31
2024-04-12T23:04:14.133Z,101825.25
2024-04-12T23:06:42.848Z,101821.78
2024-04-12T23:09:13.252Z,101829.78
2024-04-12T23:11:41.738Z,101817.72
2024-04-12T23:14:12.257Z,101810.22
2024-04-12T23:16:39.450Z,101815.84
2024-04-12T23:19:10.856Z,101821.19
2024-04-12T23:21:40.831Z,101815.28
2024-04-12T23:24:12.655Z,101818.00
2024-04-12T23:26:40.919Z,101825.22
2024-04-12T23:29:11.302Z,101824.69
2024-04-12T23:31:41.106Z,101825.75
2024-04-12T23:34:14.118Z,101819.50
2024-04-12T23:36:44.561Z,101818.88
2024-04-12T23:39:18.161Z,101828.75
2024-04-12T23:41:45.497Z,101830.69
2024-04-12T23:44:17.532Z,101827.69
2024-04-12T23:46:45.703Z,101830.50
2024-04-12T23:49:18.765Z,101827.38
2024-04-12T23:51:50.463Z,101819.47
2024-04-12T23:54:22.596Z,101824.56
2024-04-12T23:56:49.928Z,101822.69
2024-04-12T23:59:20.112Z,101818.31
